createdAt,value
2024-04-30T00:00:21.013Z,49.04
2024-04-30T00:01:21.100Z,51.80
2024-04-30T00:02:20.987Z,52.26
2024-04-30T00:03:21.049Z,52.50
2024-04-30T00:04:21.074Z,49.13
2024-04-30T00:05:21.091Z,48.60
2024-04-30T00:06:20.981Z,52.27
2024-04-30T00:07:21.046Z,49.16
2024-04-30T00:08:20.962Z,48.04
2024-04-30T00:09:21.009Z,49.09
2024-04-30T00:10:21.086Z,48.85
2024-04-30T00:11:20.993Z,51.88
2024-04-30T00:12:20.937Z,49.88
2024-04-30T00:13:20.940Z,49.29
2024-04-30T00:14:20.930Z,51.27
2024-04-30T00:15:20.915Z,49.31
2024-04-30T00:16:20.943Z,51.00
2024-04-30T00:17:21.311Z,53.58
2024-04-30T00:18:20.898Z,51.31
2024-04-30T00:19:20.934Z,50.32
2024-04-30T00:20:20.980Z,50.81
2024-04-30T00:21:20.864Z,48.79
2024-04-30T00:22:20.890Z,53.14
2024-04-30T00:23:20.859Z,49.96
2024-04-30T00:24:20.853Z,49.67
2024-04-30T00:25:20.873Z,54.04
2024-04-30T00:26:20.824Z,49.73
2024-04-30T00:27:20.847Z,53.18
2024-04-30T00:28:20.830Z,54.08
2024-04-30T00:29:20.815Z,51.52
2024-04-30T00:30:20.814Z,52.23
2024-04-30T00:31:20.819Z,55.96
2024-04-30T00:32:20.886Z,53.92
2024-04-30T00:33:20.794Z,51.56
2024-04-30T00:34:20.867Z,49.25
2024-04-30T00:35:20.771Z,49.01
2024-04-30T00:36:20.770Z,50.46
2024-04-30T00:37:20.794Z,49.71
2024-04-30T00:38:20.759Z,51.31
2024-04-30T00:39:20.751Z,49.41
2024-04-30T00:40:20.802Z,55.71
2024-04-30T00:41:20.740Z,53.97
2024-04-30T00:42:20.758Z,54.19
2024-04-30T00:43:20.743Z,51.53
2024-04-30T00:44:20.714Z,51.17
2024-04-30T00:45:20.713Z,51.59
2024-04-30T00:46:20.756Z,50.58
2024-04-30T00:47:20.745Z,50.47
2024-04-30T00:48:21.093Z,56.17
2024-04-30T00:49:20.759Z,50.72
2024-04-30T00:50:20.681Z,49.63
2024-04-30T00:51:20.670Z,51.80
2024-04-30T00:52:20.767Z,51.77
2024-04-30T00:53:20.662Z,53.31
2024-04-30T00:54:20.651Z,52.75
2024-04-30T00:55:20.696Z,52.48
2024-04-30T00:56:20.657Z,51.02
2024-04-30T00:57:20.668Z,56.17
2024-04-30T00:58:20.682Z,54.81
2024-04-30T00:59:20.627Z,54.85
2024-04-30T01:00:20.614Z,56.55
2024-04-30T01:01:20.652Z,52.70
2024-04-30T01:02:20.624Z,49.56
2024-04-30T01:03:20.615Z,56.14
2024-04-30T01:04:20.599Z,52.77
2024-04-30T01:05:21.625Z,54.25
2024-04-30T01:06:20.606Z,50.33
2024-04-30T01:07:20.635Z,54.43
2024-04-30T01:08:20.566Z,47.99
2024-04-30T01:09:20.559Z,51.89
2024-04-30T01:10:20.689Z,54.42
2024-04-30T01:11:20.578Z,53.21
2024-04-30T01:12:20.550Z,48.80
2024-04-30T01:13:20.550Z,54.25
2024-04-30T01:14:20.516Z,51.77
2024-04-30T01:15:20.558Z,52.03
2024-04-30T01:16:20.547Z,55.37
2024-04-30T01:17:20.595Z,55.21
2024-04-30T01:18:20.503Z,52.78
2024-04-30T01:19:20.547Z,50.24
2024-04-30T01:20:20.506Z,54.72
2024-04-30T01:21:20.485Z,57.05
2024-04-30T01:22:21.507Z,50.46
2024-04-30T01:23:20.468Z,48.12
2024-04-30T01:24:20.467Z,50.25
2024-04-30T01:25:20.461Z,55.79
2024-04-30T01:26:20.474Z,50.07
2024-04-30T01:27:20.436Z,55.05
2024-04-30T01:28:20.454Z,52.50
2024-04-30T01:29:20.434Z,53.51
2024-04-30T01:30:20.422Z,52.62
2024-04-30T01:31:20.481Z,50.86
2024-04-30T01:32:20.436Z,55.51
2024-04-30T01:33:20.470Z,53.93
2024-04-30T01:34:20.397Z,52.99
2024-04-30T01:35:20.388Z,50.94
2024-04-30T01:36:20.387Z,53.46
2024-04-30T01:37:20.429Z,51.58
2024-04-30T01:38:20.401Z,55.41
2024-04-30T01:39:20.366Z,53.68
2024-04-30T01:40:20.387Z,50.39
2024-04-30T01:41:20.364Z,57.12
2024-04-30T01:42:20.379Z,53.66
2024-04-30T01:43:20.410Z,52.84
2024-04-30T01:44:20.329Z,56.75
2024-04-30T01:45:20.324Z,56.27
2024-04-30T01:46:20.354Z,54.32
2024-04-30T01:47:20.346Z,55.26
2024-04-30T01:48:20.407Z,52.18
2024-04-30T01:49:20.319Z,48.83
2024-04-30T01:50:20.302Z,53.93
2024-04-30T01:51:20.349Z,58.58
2024-04-30T01:52:20.324Z,53.27
2024-04-30T01:53:20.280Z,52.17
2024-04-30T01:54:20.282Z,51.78
2024-04-30T01:55:20.272Z,53.57
2024-04-30T01:56:20.257Z,52.52
2024-04-30T01:57:20.240Z,54.52
2024-04-30T01:58:20.282Z,53.81
2024-04-30T01:59:20.238Z,50.17
2024-04-30T02:00:20.227Z,51.58
2024-04-30T02:01:20.293Z,56.00
2024-04-30T02:02:20.260Z,54.39
2024-04-30T02:03:20.258Z,51.21
2024-04-30T02:04:20.244Z,49.45
2024-04-30T02:05:24.919Z,53.88
2024-04-30T02:06:22.203Z,53.39
2024-04-30T02:07:20.255Z,52.39
2024-04-30T02:08:20.205Z,52.30
2024-04-30T02:09:20.185Z,50.97
2024-04-30T02:10:20.188Z,54.85
2024-04-30T02:11:20.194Z,55.18
2024-04-30T02:12:20.151Z,57.31
2024-04-30T02:13:20.169Z,53.94
2024-04-30T02:14:20.184Z,52.00
2024-04-30T02:15:20.146Z,56.42
2024-04-30T02:16:20.161Z,55.97
2024-04-30T02:17:20.167Z,55.68
2024-04-30T02:18:20.130Z,52.57
2024-04-30T02:19:20.293Z,54.11
2024-04-30T02:20:20.129Z,54.15
2024-04-30T02:21:20.097Z,54.39
2024-04-30T02:22:20.131Z,56.31
2024-04-30T02:23:20.216Z,54.18
2024-04-30T02:24:21.075Z,53.72
2024-04-30T02:25:20.136Z,53.92
2024-04-30T02:26:20.063Z,53.77
2024-04-30T02:27:20.062Z,55.55
2024-04-30T02:28:20.136Z,53.97
2024-04-30T02:29:20.052Z,53.47
2024-04-30T02:30:20.036Z,55.58
2024-04-30T02:31:20.089Z,54.91
2024-04-30T02:32:20.037Z,57.01
2024-04-30T02:33:20.203Z,53.78
2024-04-30T02:34:20.038Z,56.06
2024-04-30T02:35:19.994Z,56.31
2024-04-30T02:36:19.999Z,53.21
2024-04-30T02:37:20.010Z,55.28
2024-04-30T02:38:20.177Z,54.45
2024-04-30T02:39:19.986Z,57.05
2024-04-30T02:40:19.999Z,56.00
2024-04-30T02:41:19.973Z,54.56
2024-04-30T02:42:19.962Z,56.55
2024-04-30T02:43:19.982Z,55.67
2024-04-30T02:44:19.953Z,54.60
2024-04-30T02:45:19.962Z,56.97
2024-04-30T02:46:19.954Z,55.86
2024-04-30T02:47:19.940Z,56.98
2024-04-30T02:48:20.215Z,56.76
2024-04-30T02:49:19.912Z,56.17
2024-04-30T02:50:19.907Z,59.79
2024-04-30T02:51:19.901Z,57.08
2024-04-30T02:52:19.895Z,56.57
2024-04-30T02:53:20.302Z,57.26
2024-04-30T02:54:19.868Z,56.85
2024-04-30T02:55:19.870Z,58.75
2024-04-30T02:56:19.860Z,56.81
2024-04-30T02:57:19.843Z,57.06
2024-04-30T02:58:20.322Z,60.58
2024-04-30T02:59:19.844Z,58.79
2024-04-30T03:00:19.826Z,58.59
2024-04-30T03:01:19.871Z,59.91
2024-04-30T03:02:19.827Z,57.22
2024-04-30T03:03:19.818Z,59.98
2024-04-30T03:04:19.967Z,57.00
2024-04-30T03:05:19.823Z,58.92
2024-04-30T03:06:19.788Z,56.68
2024-04-30T03:07:19.809Z,56.57
2024-04-30T03:08:19.798Z,56.17
2024-04-30T03:09:19.780Z,57.57
2024-04-30T03:10:19.781Z,57.88
2024-04-30T03:11:19.785Z,58.13
2024-04-30T03:12:19.755Z,58.44
2024-04-30T03:13:19.786Z,58.85
2024-04-30T03:14:19.749Z,59.20
2024-04-30T03:15:19.751Z,58.31
2024-04-30T03:16:19.763Z,58.35
2024-04-30T03:17:19.816Z,58.69
2024-04-30T03:18:19.793Z,57.97
2024-04-30T03:19:19.766Z,59.27
2024-04-30T03:20:19.694Z,58.75
2024-04-30T03:21:19.702Z,60.29
2024-04-30T03:22:19.714Z,60.63
2024-04-30T03:23:19.689Z,58.43
2024-04-30T03:24:19.674Z,57.80
2024-04-30T03:25:19.674Z,59.59
2024-04-30T03:26:19.659Z,59.09
2024-04-30T03:27:19.656Z,58.61
2024-04-30T03:28:19.660Z,58.05
2024-04-30T03:29:19.628Z,59.39
2024-04-30T03:30:19.632Z,58.35
2024-04-30T03:31:19.650Z,58.92
2024-04-30T03:32:19.642Z,59.26
2024-04-30T03:33:19.866Z,59.62
2024-04-30T03:34:19.608Z,58.53
2024-04-30T03:35:19.592Z,58.15
2024-04-30T03:36:19.614Z,60.10
2024-04-30T03:37:19.660Z,59.75
2024-04-30T03:38:19.595Z,58.77
2024-04-30T03:39:19.561Z,59.05
2024-04-30T03:40:19.635Z,60.50
2024-04-30T03:41:19.554Z,58.94
2024-04-30T03:42:19.551Z,59.20
2024-04-30T03:43:19.598Z,59.26
2024-04-30T03:44:19.539Z,60.26
2024-04-30T03:45:19.534Z,59.33
2024-04-30T03:46:19.576Z,58.60
2024-04-30T03:47:19.630Z,58.76
2024-04-30T03:48:19.611Z,59.34
2024-04-30T03:49:19.636Z,60.65
2024-04-30T03:50:19.488Z,59.77
2024-04-30T03:51:19.489Z,58.33
2024-04-30T03:52:19.489Z,58.30
2024-04-30T03:53:19.465Z,59.66
2024-04-30T03:54:19.540Z,59.29
2024-04-30T03:55:19.484Z,60.49
2024-04-30T03:56:19.456Z,61.43
2024-04-30T03:57:19.450Z,60.03
2024-04-30T03:58:21.611Z,60.90
2024-04-30T03:59:20.451Z,59.04
2024-04-30T04:00:19.429Z,60.33
2024-04-30T04:01:19.439Z,59.18
2024-04-30T04:02:19.409Z,61.85
2024-04-30T04:03:19.411Z,61.25
2024-04-30T04:04:19.558Z,60.53
2024-04-30T04:05:19.390Z,61.27
2024-04-30T04:06:19.386Z,60.67
2024-04-30T04:07:19.386Z,60.48
2024-04-30T04:08:19.387Z,61.37
2024-04-30T04:09:19.375Z,62.39
2024-04-30T04:10:19.421Z,61.75
2024-04-30T04:11:19.366Z,62.22
2024-04-30T04:12:19.346Z,62.93
2024-04-30T04:13:19.386Z,62.69
2024-04-30T04:14:19.352Z,60.92
2024-04-30T04:15:19.325Z,60.70
2024-04-30T04:16:19.423Z,60.56
2024-04-30T04:17:19.409Z,61.53
2024-04-30T04:18:19.360Z,62.61
2024-04-30T04:19:19.472Z,60.20
2024-04-30T04:20:19.329Z,60.30
2024-04-30T04:21:21.168Z,63.97
2024-04-30T04:22:19.305Z,63.18
2024-04-30T04:23:19.279Z,62.42
2024-04-30T04:24:19.287Z,63.24
2024-04-30T04:25:19.322Z,61.77
2024-04-30T04:26:19.253Z,61.57
2024-04-30T04:27:19.246Z,62.27
2024-04-30T04:28:19.244Z,60.54
2024-04-30T04:29:19.231Z,64.00
2024-04-30T04:30:19.235Z,65.12
2024-04-30T04:31:19.225Z,63.17
2024-04-30T04:32:19.300Z,61.48
2024-04-30T04:33:19.222Z,59.80
2024-04-30T04:34:19.234Z,59.68
2024-04-30T04:35:19.184Z,60.62
2024-04-30T04:36:19.192Z,60.65
2024-04-30T04:37:19.199Z,59.75
2024-04-30T04:38:19.164Z,60.81
2024-04-30T04:39:19.169Z,60.98
2024-04-30T04:40:19.205Z,61.38
2024-04-30T04:41:19.144Z,61.12
2024-04-30T04:42:19.198Z,60.42
2024-04-30T04:43:19.131Z,59.99
2024-04-30T04:44:19.138Z,59.84
2024-04-30T04:45:19.109Z,60.68
2024-04-30T04:46:19.136Z,60.00
2024-04-30T04:47:19.276Z,62.45
2024-04-30T04:48:19.182Z,61.05
2024-04-30T04:49:19.124Z,61.83
2024-04-30T04:50:19.076Z,61.04
2024-04-30T04:51:19.096Z,58.57
2024-04-30T04:52:19.098Z,59.19
2024-04-30T04:53:19.246Z,59.75
2024-04-30T04:54:19.059Z,59.43
2024-04-30T04:55:19.094Z,59.34
2024-04-30T04:56:19.046Z,58.53
2024-04-30T04:57:19.063Z,58.80
2024-04-30T04:58:19.035Z,59.61
2024-04-30T04:59:19.029Z,58.90
2024-04-30T05:00:19.017Z,58.83
2024-04-30T05:01:19.089Z,61.14
2024-04-30T05:02:19.126Z,59.59
2024-04-30T05:03:19.010Z,59.66
2024-04-30T05:04:19.118Z,60.24
2024-04-30T05:05:18.988Z,59.27
2024-04-30T05:06:18.978Z,60.50
2024-04-30T05:07:19.021Z,59.73
2024-04-30T05:08:18.953Z,60.14
2024-04-30T05:09:18.983Z,60.27
2024-04-30T05:10:19.011Z,58.89
2024-04-30T05:11:19.017Z,58.89
2024-04-30T05:12:18.934Z,60.57
2024-04-30T05:13:18.996Z,62.06
2024-04-30T05:14:18.962Z,60.42
2024-04-30T05:15:18.924Z,59.33
2024-04-30T05:16:18.957Z,59.85
2024-04-30T05:17:18.960Z,60.36
2024-04-30T05:18:18.921Z,62.04
2024-04-30T05:19:18.914Z,60.90
2024-04-30T05:20:18.922Z,62.40
2024-04-30T05:21:18.914Z,60.43
2024-04-30T05:22:18.884Z,59.62
2024-04-30T05:23:19.001Z,59.44
2024-04-30T05:24:18.863Z,59.41
2024-04-30T05:25:19.010Z,59.66
2024-04-30T05:26:18.847Z,60.06
2024-04-30T05:27:18.845Z,60.18
2024-04-30T05:28:18.899Z,60.79
2024-04-30T05:29:18.830Z,60.30
2024-04-30T05:30:18.826Z,60.97
2024-04-30T05:31:18.950Z,60.69
2024-04-30T05:32:18.815Z,59.93
2024-04-30T05:33:18.889Z,59.48
2024-04-30T05:34:19.895Z,61.47
2024-04-30T05:35:18.789Z,60.67
2024-04-30T05:36:18.788Z,59.06
2024-04-30T05:37:18.778Z,59.80
2024-04-30T05:38:18.782Z,59.50
2024-04-30T05:39:18.765Z,59.08
2024-04-30T05:40:18.794Z,58.59
2024-04-30T05:41:18.771Z,58.88
2024-04-30T05:42:18.747Z,59.02
2024-04-30T05:43:18.794Z,58.93
2024-04-30T05:44:18.735Z,59.71
2024-04-30T05:45:18.712Z,59.20
2024-04-30T05:46:18.751Z,59.90
2024-04-30T05:47:18.707Z,60.44
2024-04-30T05:48:18.694Z,59.20
2024-04-30T05:49:18.719Z,59.95
2024-04-30T05:50:18.690Z,60.79
2024-04-30T05:51:18.696Z,59.11
2024-04-30T05:52:18.719Z,58.99
2024-04-30T05:53:18.672Z,59.48
2024-04-30T05:54:18.716Z,58.33
2024-04-30T05:55:18.702Z,58.57
2024-04-30T05:56:18.688Z,58.59
2024-04-30T05:57:18.653Z,59.17
2024-04-30T05:58:18.681Z,57.93
2024-04-30T05:59:18.626Z,57.60
2024-04-30T06:00:18.702Z,57.99
2024-04-30T06:01:18.657Z,57.47
2024-04-30T06:02:18.694Z,57.15
2024-04-30T06:03:18.620Z,58.69
2024-04-30T06:04:18.676Z,58.37
2024-04-30T06:05:18.870Z,57.94
2024-04-30T06:06:18.589Z,57.52
2024-04-30T06:07:18.618Z,57.42
2024-04-30T06:08:18.581Z,56.71
2024-04-30T06:09:18.566Z,56.85
2024-04-30T06:10:18.622Z,56.31
2024-04-30T06:11:18.592Z,58.77
2024-04-30T06:12:18.572Z,57.97
2024-04-30T06:13:18.552Z,57.78
2024-04-30T06:14:20.266Z,56.94
2024-04-30T06:15:18.606Z,56.46
2024-04-30T06:16:18.544Z,57.50
2024-04-30T06:17:18.544Z,56.40
2024-04-30T06:18:18.604Z,56.63
2024-04-30T06:19:18.539Z,57.17
2024-04-30T06:20:18.487Z,57.74
2024-04-30T06:22:19.524Z,56.59
2024-04-30T06:23:18.505Z,57.47
2024-04-30T06:24:18.533Z,57.84
2024-04-30T06:25:18.509Z,55.99
2024-04-30T06:26:18.469Z,56.22
2024-04-30T06:27:18.440Z,57.68
2024-04-30T06:28:18.619Z,56.94
2024-04-30T06:29:18.432Z,55.93
2024-04-30T06:30:18.416Z,56.82
2024-04-30T06:31:18.417Z,56.29
2024-04-30T06:32:18.396Z,56.04
2024-04-30T06:33:18.499Z,55.20
2024-04-30T06:34:18.462Z,55.83
2024-04-30T06:35:18.390Z,57.07
2024-04-30T06:36:18.372Z,55.12
2024-04-30T06:37:18.500Z,56.51
2024-04-30T06:38:18.361Z,55.84
2024-04-30T06:39:18.533Z,55.84
2024-04-30T06:40:18.401Z,55.46
2024-04-30T06:41:18.343Z,53.73
2024-04-30T06:42:18.333Z,54.63
2024-04-30T06:43:18.336Z,56.05
2024-04-30T06:44:18.345Z,57.10
2024-04-30T06:45:18.328Z,54.75
2024-04-30T06:46:19.047Z,54.43
2024-04-30T06:47:18.316Z,54.46
2024-04-30T06:48:18.357Z,55.12
2024-04-30T06:49:18.315Z,55.25
2024-04-30T06:50:18.269Z,54.80
2024-04-30T06:51:18.266Z,55.75
2024-04-30T06:52:18.326Z,54.68
2024-04-30T06:53:18.263Z,55.60
2024-04-30T06:54:18.252Z,56.63
2024-04-30T06:55:18.259Z,54.73
2024-04-30T06:56:18.261Z,55.22
2024-04-30T06:57:18.222Z,55.69
2024-04-30T06:58:18.333Z,54.89
2024-04-30T06:59:18.213Z,55.33
2024-04-30T07:00:18.212Z,56.81
2024-04-30T07:01:18.209Z,54.90
2024-04-30T07:02:18.217Z,56.70
2024-04-30T07:03:18.238Z,56.22
2024-04-30T07:04:18.367Z,55.47
2024-04-30T07:05:18.270Z,53.46
2024-04-30T07:06:18.178Z,56.37
2024-04-30T07:07:19.025Z,55.82
2024-04-30T07:08:19.168Z,54.17
2024-04-30T07:09:18.164Z,53.94
2024-04-30T07:10:18.239Z,53.45
2024-04-30T07:11:18.242Z,53.92
2024-04-30T07:12:18.144Z,55.19
2024-04-30T07:13:18.152Z,52.05
2024-04-30T07:14:18.145Z,52.80
2024-04-30T07:15:18.108Z,54.32
2024-04-30T07:16:18.131Z,55.08
2024-04-30T07:17:18.155Z,53.73
2024-04-30T07:18:18.126Z,52.26
2024-04-30T07:19:18.573Z,53.55
2024-04-30T07:20:18.090Z,53.10
2024-04-30T07:21:18.064Z,52.84
2024-04-30T07:22:18.091Z,54.10
2024-04-30T07:23:18.086Z,54.40
2024-04-30T07:24:18.077Z,53.91
2024-04-30T07:25:18.181Z,54.52
2024-04-30T07:26:19.041Z,52.74
2024-04-30T07:27:19.018Z,52.27
2024-04-30T07:28:18.017Z,51.11
2024-04-30T07:29:18.011Z,51.26
2024-04-30T07:30:18.010Z,52.95
2024-04-30T07:31:18.009Z,52.14
2024-04-30T07:32:18.007Z,54.46
2024-04-30T07:33:18.040Z,51.66
2024-04-30T07:34:18.024Z,51.90
2024-04-30T07:35:17.979Z,52.83
2024-04-30T07:36:17.973Z,51.76
2024-04-30T07:37:18.020Z,51.41
2024-04-30T07:38:17.971Z,51.56
2024-04-30T07:39:17.943Z,51.49
2024-04-30T07:40:18.524Z,51.15
2024-04-30T07:41:17.981Z,51.98
2024-04-30T07:42:17.932Z,53.32
2024-04-30T07:43:18.044Z,52.18
2024-04-30T07:44:17.906Z,53.67
2024-04-30T07:45:17.897Z,53.71
2024-04-30T07:46:17.974Z,51.36
2024-04-30T07:47:17.910Z,52.06
2024-04-30T07:48:18.026Z,51.42
2024-04-30T07:49:17.894Z,52.84
2024-04-30T07:50:17.867Z,54.96
2024-04-30T07:51:17.857Z,50.65
2024-04-30T07:52:17.894Z,51.33
2024-04-30T07:53:17.855Z,51.46
2024-04-30T07:54:17.901Z,52.93
2024-04-30T07:55:17.927Z,52.31
2024-04-30T07:56:17.845Z,49.90
2024-04-30T07:57:17.858Z,50.03
2024-04-30T07:58:17.853Z,51.10
2024-04-30T07:59:17.815Z,50.26
2024-04-30T08:00:17.792Z,52.45
2024-04-30T08:01:17.825Z,51.76
2024-04-30T08:02:17.814Z,51.19
2024-04-30T08:03:17.807Z,49.58
2024-04-30T08:04:17.796Z,49.41
2024-04-30T08:05:17.755Z,48.88
2024-04-30T08:06:20.600Z,50.43
2024-04-30T08:07:18.829Z,48.09
2024-04-30T08:08:20.695Z,49.61
2024-04-30T08:09:18.742Z,49.85
2024-04-30T08:10:17.947Z,51.27
2024-04-30T08:11:17.741Z,51.16
2024-04-30T08:12:17.747Z,47.43
2024-04-30T08:13:17.752Z,50.90
2024-04-30T08:14:17.696Z,49.99
2024-04-30T08:15:18.825Z,48.47
2024-04-30T08:16:18.709Z,47.92
2024-04-30T08:17:17.730Z,49.35
2024-04-30T08:18:17.726Z,49.99
2024-04-30T08:19:17.762Z,49.78
2024-04-30T08:20:17.666Z,52.14
2024-04-30T08:21:17.728Z,50.36
2024-04-30T08:22:17.672Z,48.75
2024-04-30T08:23:17.645Z,50.32
2024-04-30T08:24:17.638Z,50.01
2024-04-30T08:25:18.557Z,50.46
2024-04-30T08:26:17.622Z,50.53
2024-04-30T08:27:17.616Z,48.71
2024-04-30T08:28:17.857Z,47.27
2024-04-30T08:29:17.601Z,51.52
2024-04-30T08:30:17.607Z,49.38
2024-04-30T08:31:17.656Z,55.73
2024-04-30T08:32:17.608Z,57.28
2024-04-30T08:33:17.621Z,48.27
2024-04-30T08:34:17.576Z,47.15
2024-04-30T08:35:17.579Z,49.54
2024-04-30T08:36:17.617Z,47.68
2024-04-30T08:37:17.612Z,47.16
2024-04-30T08:38:17.632Z,46.34
2024-04-30T08:39:17.582Z,47.31
2024-04-30T08:40:17.544Z,50.07
2024-04-30T08:41:17.570Z,46.38
2024-04-30T08:42:17.521Z,48.98
2024-04-30T08:43:17.541Z,48.53
2024-04-30T08:44:17.512Z,48.70
2024-04-30T08:45:17.506Z,47.20
2024-04-30T08:46:17.662Z,47.39
2024-04-30T08:47:17.730Z,47.32
2024-04-30T08:48:17.620Z,47.27
2024-04-30T08:49:24.226Z,47.24
2024-04-30T08:50:19.512Z,46.92
2024-04-30T08:51:17.501Z,46.71
2024-04-30T08:52:17.573Z,46.19
2024-04-30T08:53:17.459Z,47.07
2024-04-30T08:54:17.472Z,46.67
2024-04-30T08:55:17.483Z,44.76
2024-04-30T08:56:17.443Z,46.77
2024-04-30T08:57:17.448Z,47.16
2024-04-30T08:58:17.488Z,45.25
2024-04-30T08:59:17.422Z,47.67
2024-04-30T09:00:17.448Z,48.22
2024-04-30T09:01:17.507Z,46.71
2024-04-30T09:02:17.443Z,45.46
2024-04-30T09:03:17.483Z,47.07
2024-04-30T09:04:17.487Z,48.32
2024-04-30T09:05:17.394Z,44.74
2024-04-30T09:06:17.383Z,47.12
2024-04-30T09:07:17.671Z,45.45
2024-04-30T09:08:17.377Z,46.96
2024-04-30T09:09:17.412Z,45.15
2024-04-30T09:10:17.443Z,44.64
2024-04-30T09:11:17.533Z,46.71
2024-04-30T09:12:17.395Z,45.19
2024-04-30T09:13:17.372Z,48.01
2024-04-30T09:14:17.343Z,47.74
2024-04-30T09:15:17.331Z,47.24
2024-04-30T09:16:17.335Z,45.69
2024-04-30T09:17:17.354Z,47.21
2024-04-30T09:18:17.357Z,48.74
2024-04-30T09:19:17.380Z,46.53
2024-04-30T09:20:17.353Z,44.01
2024-04-30T09:21:17.779Z,46.75
2024-04-30T09:22:17.342Z,46.35
2024-04-30T09:23:17.283Z,45.02
2024-04-30T09:24:17.292Z,44.77
2024-04-30T09:25:17.295Z,45.70
2024-04-30T09:26:17.262Z,47.15
2024-04-30T09:27:17.281Z,46.06
2024-04-30T09:28:17.331Z,46.20
2024-04-30T09:29:17.253Z,45.55
2024-04-30T09:30:17.253Z,42.51
2024-04-30T09:31:17.248Z,44.59
2024-04-30T09:32:17.397Z,47.84
2024-04-30T09:33:17.280Z,47.18
2024-04-30T09:34:17.305Z,47.01
2024-04-30T09:35:17.233Z,48.22
2024-04-30T09:36:17.436Z,46.57
2024-04-30T09:37:18.256Z,47.19
2024-04-30T09:38:19.005Z,46.20
2024-04-30T09:39:18.207Z,46.57
2024-04-30T09:40:17.200Z,44.77
2024-04-30T09:41:17.217Z,48.28
2024-04-30T09:42:17.171Z,49.86
2024-04-30T09:43:17.199Z,46.37
2024-04-30T09:44:17.166Z,47.97
2024-04-30T09:45:17.190Z,49.98
2024-04-30T09:46:17.202Z,48.61
2024-04-30T09:47:17.675Z,48.06
2024-04-30T09:48:17.146Z,47.86
2024-04-30T09:49:17.164Z,48.29
2024-04-30T09:50:17.141Z,48.13
2024-04-30T09:51:17.152Z,49.73
2024-04-30T09:52:17.171Z,47.10
2024-04-30T09:53:17.128Z,47.78
2024-04-30T09:54:17.127Z,47.08
2024-04-30T09:55:17.134Z,46.88
2024-04-30T09:56:17.129Z,45.37
2024-04-30T09:57:17.112Z,46.62
2024-04-30T09:58:17.109Z,46.70
2024-04-30T09:59:17.110Z,47.13
2024-04-30T10:00:21.613Z,51.86
2024-04-30T10:01:18.213Z,47.72
2024-04-30T10:02:17.116Z,48.94
2024-04-30T10:03:17.143Z,48.59
2024-04-30T10:04:17.196Z,48.05
2024-04-30T10:05:17.186Z,49.97
2024-04-30T10:06:17.067Z,47.98
2024-04-30T10:07:17.108Z,45.94
2024-04-30T10:08:17.070Z,48.82
2024-04-30T10:09:17.055Z,46.41
2024-04-30T10:10:17.068Z,46.62
2024-04-30T10:11:17.056Z,46.55
2024-04-30T10:12:17.069Z,46.83
2024-04-30T10:13:17.063Z,46.59
2024-04-30T10:14:17.014Z,45.17
2024-04-30T10:15:17.015Z,47.19
2024-04-30T10:16:17.077Z,46.11
2024-04-30T10:17:17.233Z,46.69
2024-04-30T10:18:17.063Z,48.08
2024-04-30T10:19:17.004Z,47.28
2024-04-30T10:20:17.010Z,46.40
2024-04-30T10:21:16.979Z,46.21
2024-04-30T10:22:17.036Z,46.98
2024-04-30T10:23:17.006Z,45.02
2024-04-30T10:24:17.025Z,46.26
2024-04-30T10:25:16.978Z,47.27
2024-04-30T10:26:16.966Z,48.10
2024-04-30T10:27:16.962Z,46.04
2024-04-30T10:28:16.959Z,47.41
2024-04-30T10:29:16.994Z,47.67
2024-04-30T10:30:16.969Z,45.80
2024-04-30T10:31:16.996Z,45.96
2024-04-30T10:32:16.947Z,52.39
2024-04-30T10:33:17.013Z,49.61
2024-04-30T10:34:17.201Z,46.97
2024-04-30T10:35:16.944Z,47.68
2024-04-30T10:36:16.906Z,46.62
2024-04-30T10:37:16.952Z,50.19
2024-04-30T10:38:16.903Z,48.53
2024-04-30T10:39:16.984Z,47.61
2024-04-30T10:40:16.910Z,48.65
2024-04-30T10:41:16.891Z,47.79
2024-04-30T10:42:16.883Z,48.41
2024-04-30T10:43:16.929Z,48.19
2024-04-30T10:44:16.871Z,46.31
2024-04-30T10:45:16.873Z,45.89
2024-04-30T10:46:16.998Z,45.62
2024-04-30T10:47:16.911Z,47.75
2024-04-30T10:48:16.913Z,49.32
2024-04-30T10:49:16.903Z,46.02
2024-04-30T10:50:19.600Z,46.52
2024-04-30T10:51:16.843Z,46.86
2024-04-30T10:52:16.863Z,46.46
2024-04-30T10:53:16.824Z,45.97
2024-04-30T10:54:16.838Z,48.55
2024-04-30T10:55:16.845Z,44.99
2024-04-30T10:56:16.844Z,45.98
2024-04-30T10:57:16.812Z,45.84
2024-04-30T10:58:16.832Z,45.11
2024-04-30T10:59:16.808Z,45.32
2024-04-30T11:00:16.913Z,50.11
2024-04-30T11:01:16.846Z,47.51
2024-04-30T11:02:16.807Z,48.16
2024-04-30T11:03:16.852Z,45.75
2024-04-30T11:04:16.851Z,45.52
2024-04-30T11:05:16.954Z,49.70
2024-04-30T11:06:16.838Z,45.60
2024-04-30T11:07:16.804Z,46.59
2024-04-30T11:08:16.791Z,47.03
2024-04-30T11:09:17.092Z,46.69
2024-04-30T11:10:16.801Z,48.18
2024-04-30T11:11:16.819Z,48.28
2024-04-30T11:12:16.752Z,46.97
2024-04-30T11:13:16.800Z,46.55
2024-04-30T11:14:16.750Z,45.95
2024-04-30T11:15:16.784Z,45.29
2024-04-30T11:16:17.139Z,46.80
2024-04-30T11:17:16.849Z,48.11
2024-04-30T11:18:16.820Z,45.66
2024-04-30T11:19:17.852Z,48.50
2024-04-30T11:20:16.724Z,49.20
2024-04-30T11:21:16.707Z,49.28
2024-04-30T11:22:16.720Z,48.17
2024-04-30T11:23:16.695Z,48.73
2024-04-30T11:24:16.714Z,48.73
2024-04-30T11:25:16.712Z,49.61
2024-04-30T11:26:16.691Z,49.57
2024-04-30T11:27:16.685Z,48.30
2024-04-30T11:28:17.700Z,47.99
2024-04-30T11:30:17.675Z,46.31
2024-04-30T11:31:16.675Z,50.07
2024-04-30T11:32:16.718Z,50.23
2024-04-30T11:33:16.833Z,48.13
2024-04-30T11:34:16.664Z,48.01
2024-04-30T11:35:16.653Z,47.00
2024-04-30T11:36:16.634Z,48.81
2024-04-30T11:37:16.636Z,48.32
2024-04-30T11:38:16.901Z,48.59
2024-04-30T11:39:16.617Z,49.21
2024-04-30T11:40:16.665Z,52.32
2024-04-30T11:41:16.612Z,49.29
2024-04-30T11:42:21.231Z,49.39
2024-04-30T11:43:18.601Z,48.50
2024-04-30T11:44:16.600Z,49.79
2024-04-30T11:45:16.605Z,51.13
2024-04-30T11:46:16.602Z,49.72
2024-04-30T11:47:16.576Z,49.14
2024-04-30T11:48:16.684Z,52.88
2024-04-30T11:49:16.586Z,55.38
2024-04-30T11:50:16.594Z,51.22
2024-04-30T11:51:16.577Z,49.04
2024-04-30T11:52:16.600Z,47.13
2024-04-30T11:53:16.662Z,46.67
2024-04-30T11:54:16.542Z,46.28
2024-04-30T11:55:16.566Z,49.27
2024-04-30T11:56:16.542Z,58.56
2024-04-30T11:57:16.526Z,54.69
2024-04-30T11:58:16.551Z,48.59
2024-04-30T11:59:16.526Z,48.88
2024-04-30T12:00:16.541Z,47.05
2024-04-30T12:01:16.583Z,48.72
2024-04-30T12:02:16.523Z,48.75
2024-04-30T12:03:16.576Z,48.27
2024-04-30T12:04:16.550Z,49.69
2024-04-30T12:05:17.544Z,50.77
2024-04-30T12:06:16.489Z,49.51
2024-04-30T12:07:16.541Z,52.53
2024-04-30T12:08:16.489Z,52.25
2024-04-30T12:09:16.518Z,49.59
2024-04-30T12:10:16.501Z,57.12
2024-04-30T12:11:16.482Z,51.72
2024-04-30T12:12:16.457Z,48.51
2024-04-30T12:13:16.499Z,47.81
2024-04-30T12:14:16.437Z,50.33
2024-04-30T12:15:16.454Z,49.26
2024-04-30T12:16:16.510Z,49.63
2024-04-30T12:17:16.499Z,51.24
2024-04-30T12:18:16.502Z,49.12
2024-04-30T12:19:16.513Z,55.63
2024-04-30T12:20:16.427Z,57.93
2024-04-30T12:21:16.595Z,57.54
2024-04-30T12:22:16.443Z,55.89
2024-04-30T12:23:16.396Z,52.00
2024-04-30T12:24:16.378Z,51.23
2024-04-30T12:25:16.390Z,50.34
2024-04-30T12:26:16.388Z,51.61
2024-04-30T12:27:16.468Z,49.15
2024-04-30T12:28:16.389Z,49.16
2024-04-30T12:29:16.361Z,54.68
2024-04-30T12:30:16.351Z,57.09
2024-04-30T12:31:20.160Z,58.65
2024-04-30T12:32:17.364Z,58.11
2024-04-30T12:33:16.375Z,59.92
2024-04-30T12:34:16.357Z,60.14
2024-04-30T12:35:16.323Z,54.68
2024-04-30T12:36:16.328Z,54.55
2024-04-30T12:37:16.327Z,52.03
2024-04-30T12:38:16.300Z,54.55
2024-04-30T12:39:16.360Z,56.00
2024-04-30T12:40:16.327Z,57.54
2024-04-30T12:41:16.285Z,57.82
2024-04-30T12:42:16.291Z,56.47
2024-04-30T12:43:16.323Z,59.93
2024-04-30T12:44:16.275Z,58.94
2024-04-30T12:45:16.271Z,58.67
2024-04-30T12:46:16.438Z,57.63
2024-04-30T12:47:16.275Z,56.48
2024-04-30T12:48:16.341Z,55.13
2024-04-30T12:49:16.335Z,54.90
2024-04-30T12:50:16.237Z,54.24
2024-04-30T12:51:16.252Z,51.95
2024-04-30T12:52:16.264Z,51.69
2024-04-30T12:53:16.288Z,51.71
2024-04-30T12:54:16.211Z,53.24